PWSweather.com
Personal Weather Stations
Station Observations
KMOHERMA2
Stony Hill, Hermann, MO 65041

Stony HillHermann, MO 65041

Lat: 38.527, Lon: -91.414

Elevation: 896

Station Type: Davis Vantage Pro 2

High Low Average
Temperature 32.1°F0.1°C 13.9°F-10.1°C 25.8°F-3.4°C
Dew Point 30.9°F-0.6°C 9.3°F-12.6°C 24.1°F-4.4°C
Winds 16.0 mph 25.7 kmh Calm Calm 2.0 mph SW3.2 kmh SW
Wind Gusts 25.0 mph40.2 kmh -- 1.0 mph1.6 kmh
Humidity 95% 82% 93%
Pressure 30.23 in1023.7 mb 29.71 in1006.1 mb -
Precipitation 0.73 in18.5 mm - -
Hour Temp Dew Point Humidity Winds Wind Gusts Pressure Precip Precip Rate Daily Precip Total
12:00 AM 31.4°F-0.3°C 30.2°F-1.0°C 95% Calm Calm -- 29.84 in1010.5 mb 0.00 in0.0 mm 0.00 in0.0 mm 0.28 in7.1 mm
12:05 AM 31.4°F-0.3°C 30.2°F-1.0°C 95% Calm Calm -- 29.84 in1010.5 mb 0.00 in0.0 mm 0.00 in0.0 mm 0.28 in7.1 mm
12:10 AM 31.4°F-0.3°C 30.2°F-1.0°C 95% Calm Calm -- 29.84 in1010.5 mb 0.00 in0.0 mm 0.00 in0.0 mm 0.28 in7.1 mm
12:15 AM 31.4°F-0.3°C 30.2°F-1.0°C 95% Calm Calm -- 29.83 in1010.2 mb 0.01 in0.3 mm 0.12 in3.0 mm 0.29 in7.4 mm
12:20 AM 31.4°F-0.3°C 30.2°F-1.0°C 95% Calm Calm -- 29.84 in1010.5 mb 0.01 in0.3 mm 0.00 in0.0 mm 0.29 in7.4 mm
12:25 AM 31.4°F-0.3°C 30.2°F-1.0°C 95% Calm Calm -- 29.83 in1010.2 mb 0.01 in0.3 mm 0.00 in0.0 mm 0.29 in7.4 mm
12:30 AM 31.4°F-0.3°C 30.2°F-1.0°C 95% 2.0 mph E3.2 kmh E -- 29.82 in1009.8 mb 0.02 in0.5 mm 0.12 in3.0 mm 0.30 in7.6 mm
12:35 AM 31.4°F-0.3°C 30.2°F-1.0°C 95% 4.0 mph E6.4 kmh E 10.0 mph16.1 kmh 29.83 in1010.2 mb 0.02 in0.5 mm 0.00 in0.0 mm 0.30 in7.6 mm
12:40 AM 31.4°F-0.3°C 30.2°F-1.0°C 95% Calm Calm -- 29.82 in1009.8 mb 0.03 in0.8 mm 0.12 in3.0 mm 0.31 in7.9 mm
12:45 AM 31.4°F-0.3°C 30.2°F-1.0°C 95% Calm Calm -- 29.80 in1009.1 mb 0.03 in0.8 mm 0.00 in0.0 mm 0.31 in7.9 mm
12:50 AM 31.4°F-0.3°C 30.2°F-1.0°C 95% Calm Calm -- 29.82 in1009.8 mb 0.03 in0.8 mm 0.00 in0.0 mm 0.31 in7.9 mm
12:55 AM 31.4°F-0.3°C 30.2°F-1.0°C 95% Calm Calm -- 29.82 in1009.8 mb 0.03 in0.8 mm 0.00 in0.0 mm 0.31 in7.9 mm
01:00 AM 31.4°F-0.3°C 30.2°F-1.0°C 95% Calm Calm -- 29.82 in1009.8 mb 0.04 in1.0 mm 0.01 in0.3 mm 0.04 in1.0 mm
01:05 AM 31.4°F-0.3°C 30.2°F-1.0°C 95% Calm Calm -- 29.82 in1009.8 mb 0.04 in1.0 mm 0.00 in0.0 mm 0.04 in1.0 mm
01:10 AM 31.4°F-0.3°C 30.2°F-1.0°C 95% Calm Calm -- 29.83 in1010.2 mb 0.04 in1.0 mm 0.00 in0.0 mm 0.04 in1.0 mm
01:15 AM 31.4°F-0.3°C 30.2°F-1.0°C 95% 5.0 mph ENE8.0 kmh ENE -- 29.84 in1010.5 mb 0.03 in0.8 mm 0.00 in0.0 mm 0.04 in1.0 mm
01:20 AM 31.4°F-0.3°C 30.2°F-1.0°C 95% Calm Calm -- 29.85 in1010.8 mb 0.03 in0.8 mm 0.00 in0.0 mm 0.04 in1.0 mm
01:25 AM 31.4°F-0.3°C 30.2°F-1.0°C 95% Calm Calm 8.0 mph12.9 kmh 29.85 in1010.8 mb 0.07 in1.8 mm 0.48 in12.2 mm 0.04 in1.0 mm
01:30 AM 31.4°F-0.3°C 30.2°F-1.0°C 95% Calm Calm -- 29.85 in1010.8 mb 0.09 in2.3 mm 0.24 in6.1 mm 0.07 in1.8 mm
01:35 AM 31.4°F-0.3°C 30.2°F-1.0°C 95% Calm Calm -- 29.85 in1010.8 mb 0.10 in2.5 mm 0.12 in3.0 mm 0.08 in2.0 mm
01:40 AM 31.4°F-0.3°C 30.2°F-1.0°C 95% 2.0 mph NE3.2 kmh NE -- 29.83 in1010.2 mb 0.11 in2.8 mm 0.12 in3.0 mm 0.10 in2.5 mm
01:45 AM 31.3°F-0.4°C 30.0°F-1.1°C 95% 4.0 mph NE6.4 kmh NE -- 29.84 in1010.5 mb 0.13 in3.3 mm 0.24 in6.1 mm 0.12 in3.0 mm
01:50 AM 31.2°F-0.4°C 30.0°F-1.1°C 95% Calm Calm 8.0 mph12.9 kmh 29.84 in1010.5 mb 0.14 in3.6 mm 0.12 in3.0 mm 0.13 in3.3 mm
01:55 AM 31.2°F-0.4°C 30.0°F-1.1°C 95% Calm Calm -- 29.83 in1010.2 mb 0.17 in4.3 mm 0.36 in9.1 mm 0.16 in4.1 mm
02:00 AM 31.2°F-0.4°C 30.0°F-1.1°C 95% Calm Calm -- 29.85 in1010.8 mb 0.17 in4.3 mm 0.00 in0.0 mm 0.17 in4.3 mm
02:05 AM 31.1°F-0.5°C 29.8°F-1.2°C 95% 5.0 mph NE8.0 kmh NE -- 29.83 in1010.2 mb 0.22 in5.6 mm 0.60 in15.2 mm 0.22 in5.6 mm
02:10 AM 31.1°F-0.5°C 29.8°F-1.2°C 95% Calm Calm -- 29.83 in1010.2 mb 0.27 in6.9 mm 0.60 in15.2 mm 0.27 in6.9 mm
02:15 AM 31.1°F-0.5°C 29.8°F-1.2°C 95% Calm Calm 6.0 mph9.7 kmh 29.84 in1010.5 mb 0.29 in7.4 mm 0.24 in6.1 mm 0.29 in7.4 mm
02:20 AM 31.1°F-0.5°C 29.8°F-1.2°C 95% Calm Calm -- 29.83 in1010.2 mb 0.31 in7.9 mm 0.24 in6.1 mm 0.31 in7.9 mm
02:25 AM 31.1°F-0.5°C 29.8°F-1.2°C 95% Calm Calm -- 29.85 in1010.8 mb 0.29 in7.4 mm 0.00 in0.0 mm 0.33 in8.4 mm
02:30 AM 31.1°F-0.5°C 29.8°F-1.2°C 95% Calm Calm -- 29.86 in1011.2 mb 0.28 in7.1 mm 0.00 in0.0 mm 0.35 in8.9 mm
02:35 AM 31.1°F-0.5°C 29.8°F-1.2°C 95% Calm Calm -- 29.87 in1011.5 mb 0.30 in7.6 mm 0.24 in6.1 mm 0.38 in9.7 mm
02:40 AM 31.2°F-0.4°C 30.0°F-1.1°C 95% Calm Calm 6.0 mph9.7 kmh 29.89 in1012.2 mb 0.33 in8.4 mm 0.36 in9.1 mm 0.43 in10.9 mm
02:45 AM 31.3°F-0.4°C 30.0°F-1.1°C 95% 7.0 mph WNW11.3 kmh WNW -- 29.87 in1011.5 mb 0.33 in8.4 mm 0.00 in0.0 mm 0.45 in11.4 mm
02:50 AM 31.3°F-0.4°C 30.0°F-1.1°C 95% 10.0 mph N16.1 kmh N -- 29.83 in1010.2 mb 0.34 in8.6 mm 0.12 in3.0 mm 0.47 in11.9 mm
02:55 AM 31.3°F-0.4°C 30.0°F-1.1°C 95% 9.0 mph NW14.5 kmh NW -- 29.84 in1010.5 mb 0.33 in8.4 mm 0.00 in0.0 mm 0.49 in12.4 mm
03:00 AM 31.2°F-0.4°C 30.0°F-1.1°C 95% Calm Calm -- 29.84 in1010.5 mb 0.34 in8.6 mm 0.01 in0.3 mm 0.51 in13.0 mm
03:05 AM 31.2°F-0.4°C 30.0°F-1.1°C 95% Calm Calm 9.0 mph14.5 kmh 29.83 in1010.2 mb 0.31 in7.9 mm 0.00 in0.0 mm 0.53 in13.5 mm
03:10 AM 31.1°F-0.5°C 29.8°F-1.2°C 95% Calm Calm -- 29.82 in1009.8 mb 0.28 in7.1 mm 0.00 in0.0 mm 0.54 in13.7 mm
03:15 AM 31.1°F-0.5°C 29.8°F-1.2°C 95% Calm Calm -- 29.83 in1010.2 mb 0.25 in6.4 mm 0.00 in0.0 mm 0.54 in13.7 mm
03:20 AM 31.0°F-0.6°C 29.7°F-1.3°C 95% Calm Calm -- 29.83 in1010.2 mb 0.24 in6.1 mm 0.00 in0.0 mm 0.55 in14.0 mm
03:25 AM 31.0°F-0.6°C 29.7°F-1.3°C 95% 6.0 mph NW9.7 kmh NW -- 29.82 in1009.8 mb 0.22 in5.6 mm 0.00 in0.0 mm 0.55 in14.0 mm
03:30 AM 30.9°F-0.6°C 29.7°F-1.3°C 95% 7.0 mph NE11.3 kmh NE 11.0 mph17.7 kmh 29.80 in1009.1 mb 0.20 in5.1 mm 0.00 in0.0 mm 0.55 in14.0 mm
03:35 AM 30.8°F-0.7°C 29.5°F-1.4°C 95% 2.0 mph NE3.2 kmh NE -- 29.80 in1009.1 mb 0.17 in4.3 mm 0.00 in0.0 mm 0.55 in14.0 mm
03:40 AM 30.7°F-0.7°C 29.5°F-1.4°C 95% Calm Calm -- 29.80 in1009.1 mb 0.12 in3.0 mm 0.00 in0.0 mm 0.55 in14.0 mm
03:45 AM 30.7°F-0.7°C 29.5°F-1.4°C 95% 4.0 mph NE6.4 kmh NE -- 29.79 in1008.8 mb 0.11 in2.8 mm 0.00 in0.0 mm 0.56 in14.2 mm
03:50 AM 30.7°F-0.7°C 29.5°F-1.4°C 95% 11.0 mph E17.7 kmh E -- 29.78 in1008.5 mb 0.09 in2.3 mm 0.00 in0.0 mm 0.56 in14.2 mm
03:55 AM 30.7°F-0.7°C 29.5°F-1.4°C 95% 4.0 mph E6.4 kmh E 11.0 mph17.7 kmh 29.77 in1008.1 mb 0.08 in2.0 mm 0.00 in0.0 mm 0.56 in14.2 mm
04:00 AM 30.7°F-0.7°C 29.5°F-1.4°C 95% 4.0 mph E6.4 kmh E -- 29.77 in1008.1 mb 0.05 in1.3 mm 0.00 in0.0 mm 0.56 in14.2 mm
04:05 AM 30.8°F-0.7°C 29.5°F-1.4°C 95% 6.0 mph E9.7 kmh E -- 29.76 in1007.8 mb 0.03 in0.8 mm 0.00 in0.0 mm 0.56 in14.2 mm
04:10 AM 30.9°F-0.6°C 29.7°F-1.3°C 95% Calm Calm -- 29.75 in1007.5 mb 0.02 in0.5 mm 0.00 in0.0 mm 0.56 in14.2 mm
04:15 AM 30.9°F-0.6°C 29.7°F-1.3°C 95% 2.0 mph E3.2 kmh E -- 29.75 in1007.5 mb 0.02 in0.5 mm 0.00 in0.0 mm 0.56 in14.2 mm
04:20 AM 30.9°F-0.6°C 29.7°F-1.3°C 95% 5.0 mph E8.0 kmh E 7.0 mph11.3 kmh 29.74 in1007.1 mb 0.01 in0.3 mm 0.00 in0.0 mm 0.56 in14.2 mm
04:25 AM 31.0°F-0.6°C 29.7°F-1.3°C 95% Calm Calm -- 29.73 in1006.8 mb 0.01 in0.3 mm 0.00 in0.0 mm 0.56 in14.2 mm
04:30 AM 31.0°F-0.6°C 29.7°F-1.3°C 95% 1.0 mph E1.6 kmh E -- 29.73 in1006.8 mb 0.01 in0.3 mm 0.00 in0.0 mm 0.56 in14.2 mm
04:35 AM 31.0°F-0.6°C 29.7°F-1.3°C 95% 3.0 mph E4.8 kmh E -- 29.72 in1006.4 mb 0.01 in0.3 mm 0.00 in0.0 mm 0.56 in14.2 mm
04:40 AM 31.0°F-0.6°C 29.7°F-1.3°C 95% Calm Calm -- 29.72 in1006.4 mb 0.01 in0.3 mm 0.00 in0.0 mm 0.56 in14.2 mm
04:45 AM 31.0°F-0.6°C 29.7°F-1.3°C 95% Calm Calm 7.0 mph11.3 kmh 29.72 in1006.4 mb 0.00 in0.0 mm 0.00 in0.0 mm 0.56 in14.2 mm
04:50 AM 31.1°F-0.5°C 29.8°F-1.2°C 95% Calm Calm -- 29.72 in1006.4 mb 0.00 in0.0 mm 0.00 in0.0 mm 0.56 in14.2 mm
04:55 AM 31.1°F-0.5°C 29.8°F-1.2°C 95% 1.0 mph E1.6 kmh E -- 29.72 in1006.4 mb 0.00 in0.0 mm 0.00 in0.0 mm 0.56 in14.2 mm
05:00 AM 31.2°F-0.4°C 30.0°F-1.1°C 95% Calm Calm -- 29.72 in1006.4 mb 0.00 in0.0 mm 0.00 in0.0 mm 0.56 in14.2 mm
05:05 AM 31.3°F-0.4°C 30.0°F-1.1°C 95% Calm Calm -- 29.73 in1006.8 mb 0.00 in0.0 mm 0.00 in0.0 mm 0.56 in14.2 mm
05:10 AM 31.4°F-0.3°C 30.2°F-1.0°C 95% Calm Calm -- 29.73 in1006.8 mb 0.00 in0.0 mm 0.00 in0.0 mm 0.56 in14.2 mm
05:15 AM 31.4°F-0.3°C 30.2°F-1.0°C 95% Calm Calm -- 29.73 in1006.8 mb 0.00 in0.0 mm 0.00 in0.0 mm 0.56 in14.2 mm
05:20 AM 31.4°F-0.3°C 30.2°F-1.0°C 95% Calm Calm -- 29.73 in1006.8 mb 0.00 in0.0 mm 0.00 in0.0 mm 0.56 in14.2 mm
05:25 AM 31.4°F-0.3°C 30.2°F-1.0°C 95% Calm Calm -- 29.72 in1006.4 mb 0.00 in0.0 mm 0.00 in0.0 mm 0.56 in14.2 mm
05:30 AM 31.4°F-0.3°C 30.2°F-1.0°C 95% Calm Calm -- 29.72 in1006.4 mb 0.00 in0.0 mm 0.00 in0.0 mm 0.56 in14.2 mm
05:35 AM 31.4°F-0.3°C 30.2°F-1.0°C 95% Calm Calm -- 29.72 in1006.4 mb 0.00 in0.0 mm 0.00 in0.0 mm 0.56 in14.2 mm
05:40 AM 31.5°F-0.3°C 30.2°F-1.0°C 95% Calm Calm -- 29.72 in1006.4 mb 0.00 in0.0 mm 0.00 in0.0 mm 0.56 in14.2 mm
05:45 AM 31.6°F-0.2°C 30.4°F-0.9°C 95% Calm Calm -- 29.72 in1006.4 mb 0.00 in0.0 mm 0.00 in0.0 mm 0.56 in14.2 mm
05:50 AM 31.7°F-0.2°C 30.4°F-0.9°C 95% Calm Calm -- 29.72 in1006.4 mb 0.00 in0.0 mm 0.00 in0.0 mm 0.56 in14.2 mm
05:55 AM 31.8°F-0.1°C 30.6°F-0.8°C 95% Calm Calm -- 29.73 in1006.8 mb 0.00 in0.0 mm 0.00 in0.0 mm 0.56 in14.2 mm
06:00 AM 31.9°F-0.1°C 30.6°F-0.8°C 95% Calm Calm -- 29.75 in1007.5 mb 0.00 in0.0 mm 0.00 in0.0 mm 0.56 in14.2 mm
06:05 AM 32.1°F0.1°C 30.9°F-0.6°C 95% 6.0 mph WSW9.7 kmh WSW -- 29.80 in1009.1 mb 0.00 in0.0 mm 0.00 in0.0 mm 0.56 in14.2 mm
06:10 AM 32.0°F0.0°C 30.7°F-0.7°C 95% 5.0 mph WSW8.0 kmh WSW -- 29.80 in1009.1 mb 0.00 in0.0 mm 0.00 in0.0 mm 0.56 in14.2 mm
06:15 AM 31.7°F-0.2°C 30.4°F-0.9°C 95% 6.0 mph SW9.7 kmh SW -- 29.83 in1010.2 mb 0.02 in0.5 mm 0.24 in6.1 mm 0.58 in14.7 mm
06:20 AM 31.4°F-0.3°C 30.2°F-1.0°C 95% 11.0 mph W17.7 kmh W -- 29.82 in1009.8 mb 0.03 in0.8 mm 0.12 in3.0 mm 0.59 in15.0 mm
06:25 AM 31.1°F-0.5°C 29.8°F-1.2°C 95% 13.0 mph W20.9 kmh W 23.0 mph37.0 kmh 29.80 in1009.1 mb 0.05 in1.3 mm 0.24 in6.1 mm 0.61 in15.5 mm
06:30 AM 30.8°F-0.7°C 29.5°F-1.4°C 95% 12.0 mph WNW19.3 kmh WNW -- 29.80 in1009.1 mb 0.06 in1.5 mm 0.12 in3.0 mm 0.62 in15.7 mm
06:35 AM 30.7°F-0.7°C 29.5°F-1.4°C 95% 7.0 mph W11.3 kmh W -- 29.80 in1009.1 mb 0.07 in1.8 mm 0.12 in3.0 mm 0.63 in16.0 mm
06:40 AM 30.6°F-0.8°C 29.3°F-1.5°C 95% 4.0 mph W6.4 kmh W -- 29.79 in1008.8 mb 0.08 in2.0 mm 0.12 in3.0 mm 0.64 in16.3 mm
06:45 AM 30.5°F-0.8°C 29.3°F-1.5°C 95% 5.0 mph NW8.0 kmh NW -- 29.78 in1008.5 mb 0.10 in2.5 mm 0.24 in6.1 mm 0.66 in16.8 mm
06:50 AM 30.5°F-0.8°C 29.3°F-1.5°C 95% Calm Calm 12.0 mph19.3 kmh 29.78 in1008.5 mb 0.10 in2.5 mm 0.00 in0.0 mm 0.66 in16.8 mm
06:55 AM 30.4°F-0.9°C 29.1°F-1.6°C 95% Calm Calm -- 29.76 in1007.8 mb 0.10 in2.5 mm 0.00 in0.0 mm 0.66 in16.8 mm
07:00 AM 30.4°F-0.9°C 29.1°F-1.6°C 95% Calm Calm -- 29.75 in1007.5 mb 0.10 in2.5 mm 0.00 in0.0 mm 0.66 in16.8 mm
07:05 AM 30.4°F-0.9°C 29.1°F-1.6°C 95% Calm Calm -- 29.73 in1006.8 mb 0.10 in2.5 mm 0.00 in0.0 mm 0.66 in16.8 mm
07:10 AM 30.4°F-0.9°C 29.1°F-1.6°C 95% Calm Calm -- 29.72 in1006.4 mb 0.10 in2.5 mm 0.00 in0.0 mm 0.66 in16.8 mm
07:15 AM 30.4°F-0.9°C 29.1°F-1.6°C 95% Calm Calm -- 29.71 in1006.1 mb 0.08 in2.0 mm 0.00 in0.0 mm 0.66 in16.8 mm
07:20 AM 30.4°F-0.9°C 29.1°F-1.6°C 95% Calm Calm -- 29.71 in1006.1 mb 0.07 in1.8 mm 0.00 in0.0 mm 0.66 in16.8 mm
07:25 AM 30.3°F-0.9°C 29.1°F-1.6°C 95% Calm Calm -- 29.73 in1006.8 mb 0.05 in1.3 mm 0.00 in0.0 mm 0.66 in16.8 mm
07:30 AM 30.4°F-0.9°C 29.1°F-1.6°C 95% Calm Calm -- 29.74 in1007.1 mb 0.04 in1.0 mm 0.00 in0.0 mm 0.66 in16.8 mm
07:35 AM 30.4°F-0.9°C 29.1°F-1.6°C 95% Calm Calm -- 29.74 in1007.1 mb 0.04 in1.0 mm 0.00 in0.0 mm 0.67 in17.0 mm
07:40 AM 30.4°F-0.9°C 29.1°F-1.6°C 95% Calm Calm -- 29.73 in1006.8 mb 0.03 in0.8 mm 0.00 in0.0 mm 0.67 in17.0 mm
07:45 AM 30.4°F-0.9°C 29.1°F-1.6°C 95% Calm Calm -- 29.72 in1006.4 mb 0.01 in0.3 mm 0.00 in0.0 mm 0.67 in17.0 mm
07:50 AM 30.4°F-0.9°C 29.1°F-1.6°C 95% 5.0 mph WNW8.0 kmh WNW -- 29.72 in1006.4 mb 0.01 in0.3 mm 0.00 in0.0 mm 0.67 in17.0 mm
07:55 AM 30.3°F-0.9°C 29.1°F-1.6°C 95% 10.0 mph NW16.1 kmh NW -- 29.71 in1006.1 mb 0.01 in0.3 mm 0.00 in0.0 mm 0.67 in17.0 mm
08:00 AM 30.3°F-0.9°C 29.1°F-1.6°C 95% 8.0 mph NW12.9 kmh NW -- 29.71 in1006.1 mb 0.01 in0.3 mm 0.00 in0.0 mm 0.67 in17.0 mm
08:05 AM 30.3°F-0.9°C 29.1°F-1.6°C 95% 6.0 mph NW9.7 kmh NW 12.0 mph19.3 kmh 29.71 in1006.1 mb 0.01 in0.3 mm 0.00 in0.0 mm 0.67 in17.0 mm
08:10 AM 30.3°F-0.9°C 29.1°F-1.6°C 95% 7.0 mph NW11.3 kmh NW -- 29.72 in1006.4 mb 0.01 in0.3 mm 0.00 in0.0 mm 0.67 in17.0 mm
08:15 AM 30.2°F-1.0°C 28.9°F-1.7°C 95% 7.0 mph NW11.3 kmh NW -- 29.72 in1006.4 mb 0.01 in0.3 mm 0.00 in0.0 mm 0.67 in17.0 mm
08:20 AM 30.2°F-1.0°C 28.9°F-1.7°C 95% 5.0 mph NW8.0 kmh NW -- 29.71 in1006.1 mb 0.01 in0.3 mm 0.00 in0.0 mm 0.67 in17.0 mm
08:25 AM 30.2°F-1.0°C 28.9°F-1.7°C 95% 5.0 mph NW8.0 kmh NW -- 29.71 in1006.1 mb 0.01 in0.3 mm 0.00 in0.0 mm 0.67 in17.0 mm
08:30 AM 30.1°F-1.1°C 28.8°F-1.8°C 95% 7.0 mph NW11.3 kmh NW 11.0 mph17.7 kmh 29.71 in1006.1 mb 0.01 in0.3 mm 0.00 in0.0 mm 0.67 in17.0 mm
08:35 AM 30.1°F-1.1°C 28.8°F-1.8°C 95% 3.0 mph NW4.8 kmh NW -- 29.72 in1006.4 mb 0.00 in0.0 mm 0.00 in0.0 mm 0.67 in17.0 mm
08:40 AM 30.1°F-1.1°C 28.8°F-1.8°C 95% 3.0 mph NW4.8 kmh NW -- 29.73 in1006.8 mb 0.00 in0.0 mm 0.00 in0.0 mm 0.67 in17.0 mm
08:45 AM 30.1°F-1.1°C 28.8°F-1.8°C 95% 6.0 mph WNW9.7 kmh WNW -- 29.75 in1007.5 mb 0.00 in0.0 mm 0.00 in0.0 mm 0.67 in17.0 mm
08:50 AM 30.1°F-1.1°C 28.8°F-1.8°C 95% Calm Calm -- 29.74 in1007.1 mb 0.00 in0.0 mm 0.00 in0.0 mm 0.67 in17.0 mm
08:55 AM 30.1°F-1.1°C 28.8°F-1.8°C 95% Calm Calm 9.0 mph14.5 kmh 29.74 in1007.1 mb 0.01 in0.3 mm 0.12 in3.0 mm 0.68 in17.3 mm
09:00 AM 30.1°F-1.1°C 28.8°F-1.8°C 95% Calm Calm -- 29.76 in1007.8 mb 0.01 in0.3 mm 0.00 in0.0 mm 0.68 in17.3 mm
09:05 AM 30.1°F-1.1°C 28.8°F-1.8°C 95% 1.0 mph WNW1.6 kmh WNW -- 29.77 in1008.1 mb 0.02 in0.5 mm 0.12 in3.0 mm 0.69 in17.5 mm
09:10 AM 30.2°F-1.0°C 28.9°F-1.7°C 95% Calm Calm -- 29.75 in1007.5 mb 0.04 in1.0 mm 0.24 in6.1 mm 0.71 in18.0 mm
09:15 AM 30.2°F-1.0°C 28.9°F-1.7°C 95% 4.0 mph WNW6.4 kmh WNW -- 29.76 in1007.8 mb 0.05 in1.3 mm 0.12 in3.0 mm 0.72 in18.3 mm
09:20 AM 30.1°F-1.1°C 28.8°F-1.8°C 95% 6.0 mph WNW9.7 kmh WNW 10.0 mph16.1 kmh 29.76 in1007.8 mb 0.05 in1.3 mm 0.00 in0.0 mm 0.72 in18.3 mm
09:25 AM 30.1°F-1.1°C 28.8°F-1.8°C 95% 4.0 mph WNW6.4 kmh WNW -- 29.77 in1008.1 mb 0.05 in1.3 mm 0.00 in0.0 mm 0.72 in18.3 mm
09:30 AM 30.2°F-1.0°C 28.9°F-1.7°C 95% 7.0 mph WNW11.3 kmh WNW -- 29.76 in1007.8 mb 0.05 in1.3 mm 0.00 in0.0 mm 0.72 in18.3 mm
09:35 AM 30.1°F-1.1°C 28.8°F-1.8°C 95% 13.0 mph W20.9 kmh W -- 29.77 in1008.1 mb 0.05 in1.3 mm 0.00 in0.0 mm 0.72 in18.3 mm
09:40 AM 30.1°F-1.1°C 28.8°F-1.8°C 95% 5.0 mph W8.0 kmh W -- 29.79 in1008.8 mb 0.05 in1.3 mm 0.00 in0.0 mm 0.72 in18.3 mm
09:45 AM 30.0°F-1.1°C 28.8°F-1.8°C 95% 6.0 mph W9.7 kmh W 15.0 mph24.1 kmh 29.79 in1008.8 mb 0.05 in1.3 mm 0.00 in0.0 mm 0.72 in18.3 mm
09:50 AM 29.9°F-1.2°C 28.6°F-1.9°C 95% 6.0 mph WNW9.7 kmh WNW -- 29.77 in1008.1 mb 0.06 in1.5 mm 0.12 in3.0 mm 0.73 in18.5 mm
09:55 AM 29.8°F-1.2°C 28.6°F-1.9°C 95% 2.0 mph W3.2 kmh W -- 29.74 in1007.1 mb 0.05 in1.3 mm 0.00 in0.0 mm 0.73 in18.5 mm
10:00 AM 29.8°F-1.2°C 28.6°F-1.9°C 95% 15.0 mph WNW24.1 kmh WNW -- 29.76 in1007.8 mb 0.05 in1.3 mm 0.00 in0.0 mm 0.73 in18.5 mm
10:05 AM 29.7°F-1.3°C 28.4°F-2.0°C 95% 14.0 mph NW22.5 kmh NW -- 29.75 in1007.5 mb 0.04 in1.0 mm 0.00 in0.0 mm 0.73 in18.5 mm
10:10 AM 29.6°F-1.3°C 28.4°F-2.0°C 95% 11.0 mph WNW17.7 kmh WNW 25.0 mph40.2 kmh 29.76 in1007.8 mb 0.02 in0.5 mm 0.00 in0.0 mm 0.73 in18.5 mm
10:15 AM 29.6°F-1.3°C 28.4°F-2.0°C 95% 15.0 mph WNW24.1 kmh WNW -- 29.77 in1008.1 mb 0.01 in0.3 mm 0.00 in0.0 mm 0.73 in18.5 mm
10:20 AM 29.5°F-1.4°C 28.2°F-2.1°C 95% 3.0 mph WNW4.8 kmh WNW -- 29.78 in1008.5 mb 0.01 in0.3 mm 0.00 in0.0 mm 0.73 in18.5 mm
10:25 AM 29.6°F-1.3°C 28.4°F-2.0°C 95% Calm Calm -- 29.78 in1008.5 mb 0.01 in0.3 mm 0.00 in0.0 mm 0.73 in18.5 mm
10:30 AM 29.7°F-1.3°C 28.4°F-2.0°C 95% Calm Calm -- 29.79 in1008.8 mb 0.01 in0.3 mm 0.00 in0.0 mm 0.73 in18.5 mm
10:35 AM 29.7°F-1.3°C 28.4°F-2.0°C 95% 11.0 mph W17.7 kmh W 18.0 mph29.0 kmh 29.79 in1008.8 mb 0.01 in0.3 mm 0.00 in0.0 mm 0.73 in18.5 mm
10:40 AM 29.6°F-1.3°C 28.4°F-2.0°C 95% Calm Calm -- 29.79 in1008.8 mb 0.01 in0.3 mm 0.00 in0.0 mm 0.73 in18.5 mm
10:45 AM 29.5°F-1.4°C 28.2°F-2.1°C 95% Calm Calm -- 29.79 in1008.8 mb 0.01 in0.3 mm 0.00 in0.0 mm 0.73 in18.5 mm
10:50 AM 29.5°F-1.4°C 28.2°F-2.1°C 95% Calm Calm -- 29.81 in1009.5 mb 0.00 in0.0 mm 0.00 in0.0 mm 0.73 in18.5 mm
10:55 AM 29.5°F-1.4°C 28.2°F-2.1°C 95% Calm Calm -- 29.81 in1009.5 mb 0.00 in0.0 mm 0.00 in0.0 mm 0.73 in18.5 mm
11:00 AM 29.5°F-1.4°C 28.2°F-2.1°C 95% Calm Calm 11.0 mph17.7 kmh 29.82 in1009.8 mb 0.00 in0.0 mm 0.00 in0.0 mm 0.73 in18.5 mm
11:05 AM 29.5°F-1.4°C 28.2°F-2.1°C 95% Calm Calm -- 29.82 in1009.8 mb 0.00 in0.0 mm 0.00 in0.0 mm 0.73 in18.5 mm
11:10 AM 29.5°F-1.4°C 28.2°F-2.1°C 95% Calm Calm -- 29.82 in1009.8 mb 0.00 in0.0 mm 0.00 in0.0 mm 0.73 in18.5 mm
11:15 AM 29.4°F-1.4°C 28.2°F-2.1°C 95% Calm Calm -- 29.82 in1009.8 mb 0.00 in0.0 mm 0.00 in0.0 mm 0.73 in18.5 mm
11:20 AM 29.4°F-1.4°C 28.2°F-2.1°C 95% Calm Calm -- 29.82 in1009.8 mb 0.00 in0.0 mm 0.00 in0.0 mm 0.73 in18.5 mm
11:25 AM 29.5°F-1.4°C 28.2°F-2.1°C 95% Calm Calm -- 29.82 in1009.8 mb 0.00 in0.0 mm 0.00 in0.0 mm 0.73 in18.5 mm
11:30 AM 29.5°F-1.4°C 28.2°F-2.1°C 95% Calm Calm -- 29.83 in1010.2 mb 0.00 in0.0 mm 0.00 in0.0 mm 0.73 in18.5 mm
11:35 AM 29.5°F-1.4°C 28.2°F-2.1°C 95% Calm Calm -- 29.85 in1010.8 mb 0.00 in0.0 mm 0.00 in0.0 mm 0.73 in18.5 mm
11:40 AM 29.4°F-1.4°C 28.2°F-2.1°C 95% Calm Calm -- 29.85 in1010.8 mb 0.00 in0.0 mm 0.00 in0.0 mm 0.73 in18.5 mm
11:45 AM 29.1°F-1.6°C 27.9°F-2.3°C 95% Calm Calm -- 29.85 in1010.8 mb 0.00 in0.0 mm 0.00 in0.0 mm 0.73 in18.5 mm
11:50 AM 28.9°F-1.7°C 27.7°F-2.4°C 95% Calm Calm -- 29.86 in1011.2 mb 0.00 in0.0 mm 0.00 in0.0 mm 0.73 in18.5 mm
11:55 AM 28.8°F-1.8°C 27.5°F-2.5°C 95% Calm Calm -- 29.87 in1011.5 mb 0.00 in0.0 mm 0.00 in0.0 mm 0.73 in18.5 mm
12:00 PM 28.5°F-1.9°C 27.3°F-2.6°C 95% Calm Calm -- 29.87 in1011.5 mb 0.00 in0.0 mm 0.00 in0.0 mm 0.73 in18.5 mm
12:05 PM 28.5°F-1.9°C 27.3°F-2.6°C 95% Calm Calm -- 29.87 in1011.5 mb 0.00 in0.0 mm 0.00 in0.0 mm 0.73 in18.5 mm
12:10 PM 28.8°F-1.8°C 27.5°F-2.5°C 95% Calm Calm -- 29.88 in1011.9 mb 0.00 in0.0 mm 0.00 in0.0 mm 0.73 in18.5 mm
12:15 PM 28.5°F-1.9°C 27.3°F-2.6°C 95% Calm Calm -- 29.87 in1011.5 mb 0.00 in0.0 mm 0.00 in0.0 mm 0.73 in18.5 mm
12:20 PM 28.5°F-1.9°C 27.3°F-2.6°C 95% Calm Calm -- 29.88 in1011.9 mb 0.00 in0.0 mm 0.00 in0.0 mm 0.73 in18.5 mm
12:25 PM 28.2°F-2.1°C 27.0°F-2.8°C 95% Calm Calm -- 29.89 in1012.2 mb 0.00 in0.0 mm 0.00 in0.0 mm 0.73 in18.5 mm
12:30 PM 27.9°F-2.3°C 26.6°F-3.0°C 95% Calm Calm -- 29.90 in1012.5 mb 0.00 in0.0 mm 0.00 in0.0 mm 0.73 in18.5 mm
12:35 PM 27.4°F-2.6°C 26.1°F-3.3°C 95% Calm Calm -- 29.90 in1012.5 mb 0.00 in0.0 mm 0.00 in0.0 mm 0.73 in18.5 mm
12:40 PM 26.9°F-2.8°C 25.7°F-3.5°C 95% Calm Calm 3.0 mph4.8 kmh 29.91 in1012.9 mb 0.00 in0.0 mm 0.00 in0.0 mm 0.73 in18.5 mm
12:45 PM 26.1°F-3.3°C 24.8°F-4.0°C 95% Calm Calm -- 29.91 in1012.9 mb 0.00 in0.0 mm 0.00 in0.0 mm 0.73 in18.5 mm
12:50 PM 25.4°F-3.7°C 24.1°F-4.4°C 95% Calm Calm -- 29.92 in1013.2 mb 0.00 in0.0 mm 0.00 in0.0 mm 0.73 in18.5 mm
12:55 PM 24.6°F-4.1°C 23.4°F-4.8°C 95% Calm Calm -- 29.93 in1013.5 mb 0.00 in0.0 mm 0.00 in0.0 mm 0.73 in18.5 mm
01:00 PM 24.1°F-4.4°C 22.8°F-5.1°C 95% Calm Calm -- 29.92 in1013.2 mb 0.00 in0.0 mm 0.00 in0.0 mm 0.73 in18.5 mm
01:05 PM 23.4°F-4.8°C 22.1°F-5.5°C 95% Calm Calm -- 29.94 in1013.9 mb 0.00 in0.0 mm 0.00 in0.0 mm 0.73 in18.5 mm
01:10 PM 22.9°F-5.1°C 21.6°F-5.8°C 95% Calm Calm -- 29.94 in1013.9 mb 0.00 in0.0 mm 0.00 in0.0 mm 0.73 in18.5 mm
01:15 PM 22.5°F-5.3°C 21.2°F-6.0°C 95% Calm Calm -- 29.93 in1013.5 mb 0.00 in0.0 mm 0.00 in0.0 mm 0.73 in18.5 mm
01:20 PM 22.3°F-5.4°C 20.8°F-6.2°C 94% Calm Calm -- 29.95 in1014.2 mb 0.00 in0.0 mm 0.00 in0.0 mm 0.73 in18.5 mm
01:25 PM 22.0°F-5.6°C 20.7°F-6.3°C 95% Calm Calm -- 29.95 in1014.2 mb 0.00 in0.0 mm 0.00 in0.0 mm 0.73 in18.5 mm
01:30 PM 21.9°F-5.6°C 20.7°F-6.3°C 95% Calm Calm -- 29.94 in1013.9 mb 0.00 in0.0 mm 0.00 in0.0 mm 0.73 in18.5 mm
01:35 PM 21.6°F-5.8°C 20.1°F-6.6°C 94% 6.0 mph WSW9.7 kmh WSW -- 29.95 in1014.2 mb 0.00 in0.0 mm 0.00 in0.0 mm 0.73 in18.5 mm
01:40 PM 21.2°F-6.0°C 19.8°F-6.8°C 94% Calm Calm -- 29.95 in1014.2 mb 0.00 in0.0 mm 0.00 in0.0 mm 0.73 in18.5 mm
01:45 PM 21.1°F-6.1°C 19.6°F-6.9°C 94% 8.0 mph WSW12.9 kmh WSW -- 29.95 in1014.2 mb 0.00 in0.0 mm 0.00 in0.0 mm 0.73 in18.5 mm
01:50 PM 21.0°F-6.1°C 19.6°F-6.9°C 94% 14.0 mph WSW22.5 kmh WSW -- 29.96 in1014.6 mb 0.00 in0.0 mm 0.00 in0.0 mm 0.73 in18.5 mm
01:55 PM 20.8°F-6.2°C 19.4°F-7.0°C 94% 1.0 mph WSW1.6 kmh WSW 17.0 mph27.4 kmh 29.96 in1014.6 mb 0.00 in0.0 mm 0.00 in0.0 mm 0.73 in18.5 mm
02:00 PM 20.6°F-6.3°C 19.2°F-7.1°C 94% 15.0 mph WSW24.1 kmh WSW -- 29.96 in1014.6 mb 0.00 in0.0 mm 0.00 in0.0 mm 0.73 in18.5 mm
02:05 PM 20.3°F-6.5°C 18.9°F-7.3°C 94% Calm Calm -- 29.96 in1014.6 mb 0.00 in0.0 mm 0.00 in0.0 mm 0.73 in18.5 mm
02:10 PM 20.1°F-6.6°C 18.7°F-7.4°C 94% Calm Calm -- 29.97 in1014.9 mb 0.00 in0.0 mm 0.00 in0.0 mm 0.73 in18.5 mm
02:15 PM 20.0°F-6.7°C 18.5°F-7.5°C 94% 3.0 mph WSW4.8 kmh WSW -- 29.97 in1014.9 mb 0.00 in0.0 mm 0.00 in0.0 mm 0.73 in18.5 mm
02:20 PM 20.0°F-6.7°C 18.5°F-7.5°C 94% 12.0 mph WSW19.3 kmh WSW 16.0 mph25.7 kmh 29.98 in1015.2 mb 0.00 in0.0 mm 0.00 in0.0 mm 0.73 in18.5 mm
02:25 PM 20.0°F-6.7°C 18.5°F-7.5°C 94% Calm Calm -- 29.98 in1015.2 mb 0.00 in0.0 mm 0.00 in0.0 mm 0.73 in18.5 mm
02:30 PM 19.9°F-6.7°C 18.5°F-7.5°C 94% Calm Calm -- 29.98 in1015.2 mb 0.00 in0.0 mm 0.00 in0.0 mm 0.73 in18.5 mm
02:35 PM 19.8°F-6.8°C 18.3°F-7.6°C 94% Calm Calm -- 29.98 in1015.2 mb 0.00 in0.0 mm 0.00 in0.0 mm 0.73 in18.5 mm
02:40 PM 19.8°F-6.8°C 18.3°F-7.6°C 94% 9.0 mph WSW14.5 kmh WSW -- 29.98 in1015.2 mb 0.00 in0.0 mm 0.00 in0.0 mm 0.73 in18.5 mm
02:45 PM 19.7°F-6.8°C 18.3°F-7.6°C 94% 14.0 mph WSW22.5 kmh WSW 20.0 mph32.2 kmh 29.99 in1015.6 mb 0.00 in0.0 mm 0.00 in0.0 mm 0.73 in18.5 mm
02:50 PM 19.6°F-6.9°C 18.1°F-7.7°C 94% 15.0 mph WSW24.1 kmh WSW -- 29.99 in1015.6 mb 0.00 in0.0 mm 0.00 in0.0 mm 0.73 in18.5 mm
02:55 PM 19.3°F-7.1°C 17.6°F-8.0°C 93% 15.0 mph WSW24.1 kmh WSW -- 29.99 in1015.6 mb 0.00 in0.0 mm 0.00 in0.0 mm 0.73 in18.5 mm
03:00 PM 19.2°F-7.1°C 17.6°F-8.0°C 93% 16.0 mph WSW25.7 kmh WSW -- 30.00 in1015.9 mb 0.00 in0.0 mm 0.00 in0.0 mm 0.73 in18.5 mm
03:05 PM 18.9°F-7.3°C 17.2°F-8.2°C 93% 5.0 mph WSW8.0 kmh WSW -- 30.00 in1015.9 mb 0.00 in0.0 mm 0.00 in0.0 mm 0.73 in18.5 mm
03:10 PM 18.8°F-7.3°C 17.2°F-8.2°C 93% Calm Calm 22.0 mph35.4 kmh 30.01 in1016.3 mb 0.00 in0.0 mm 0.00 in0.0 mm 0.73 in18.5 mm
03:15 PM 18.7°F-7.4°C 17.1°F-8.3°C 93% Calm Calm -- 30.02 in1016.6 mb 0.00 in0.0 mm 0.00 in0.0 mm 0.73 in18.5 mm
03:20 PM 18.5°F-7.5°C 16.9°F-8.4°C 93% Calm Calm -- 30.02 in1016.6 mb 0.00 in0.0 mm 0.00 in0.0 mm 0.73 in18.5 mm
03:25 PM 18.6°F-7.4°C 17.1°F-8.3°C 93% Calm Calm -- 30.02 in1016.6 mb 0.00 in0.0 mm 0.00 in0.0 mm 0.73 in18.5 mm
03:30 PM 18.4°F-7.6°C 16.7°F-8.5°C 93% Calm Calm -- 30.03 in1016.9 mb 0.00 in0.0 mm 0.00 in0.0 mm 0.73 in18.5 mm
03:35 PM 18.2°F-7.7°C 16.5°F-8.6°C 93% Calm Calm 2.0 mph3.2 kmh 30.03 in1016.9 mb 0.00 in0.0 mm 0.00 in0.0 mm 0.73 in18.5 mm
03:40 PM 17.9°F-7.8°C 16.3°F-8.7°C 93% Calm Calm -- 30.04 in1017.3 mb 0.00 in0.0 mm 0.00 in0.0 mm 0.73 in18.5 mm
03:45 PM 17.7°F-7.9°C 15.8°F-9.0°C 92% Calm Calm -- 30.04 in1017.3 mb 0.00 in0.0 mm 0.00 in0.0 mm 0.73 in18.5 mm
03:50 PM 17.6°F-8.0°C 16.0°F-8.9°C 93% Calm Calm -- 30.04 in1017.3 mb 0.00 in0.0 mm 0.00 in0.0 mm 0.73 in18.5 mm
03:55 PM 17.5°F-8.1°C 15.8°F-9.0°C 93% Calm Calm -- 30.05 in1017.6 mb 0.00 in0.0 mm 0.00 in0.0 mm 0.73 in18.5 mm
04:00 PM 17.4°F-8.1°C 15.4°F-9.2°C 92% Calm Calm -- 30.05 in1017.6 mb 0.00 in0.0 mm 0.00 in0.0 mm 0.73 in18.5 mm
04:05 PM 17.2°F-8.2°C 15.3°F-9.3°C 92% Calm Calm -- 30.05 in1017.6 mb 0.00 in0.0 mm 0.00 in0.0 mm 0.73 in18.5 mm
04:10 PM 17.0°F-8.3°C 15.1°F-9.4°C 92% Calm Calm -- 30.06 in1017.9 mb 0.00 in0.0 mm 0.00 in0.0 mm 0.73 in18.5 mm
04:15 PM 17.0°F-8.3°C 15.1°F-9.4°C 92% Calm Calm -- 30.06 in1017.9 mb 0.00 in0.0 mm 0.00 in0.0 mm 0.73 in18.5 mm
04:20 PM 17.1°F-8.3°C 14.9°F-9.5°C 91% Calm Calm -- 30.07 in1018.3 mb 0.00 in0.0 mm 0.00 in0.0 mm 0.73 in18.5 mm
04:25 PM 17.2°F-8.2°C 15.1°F-9.4°C 91% Calm Calm -- 30.07 in1018.3 mb 0.00 in0.0 mm 0.00 in0.0 mm 0.73 in18.5 mm
04:30 PM 17.2°F-8.2°C 15.1°F-9.4°C 91% Calm Calm -- 30.08 in1018.6 mb 0.00 in0.0 mm 0.00 in0.0 mm 0.73 in18.5 mm
04:35 PM 17.2°F-8.2°C 15.1°F-9.4°C 91% Calm Calm -- 30.08 in1018.6 mb 0.00 in0.0 mm 0.00 in0.0 mm 0.73 in18.5 mm
04:40 PM 17.0°F-8.3°C 14.9°F-9.5°C 91% Calm Calm -- 30.09 in1019.0 mb 0.00 in0.0 mm 0.00 in0.0 mm 0.73 in18.5 mm
04:45 PM 16.7°F-8.5°C 14.4°F-9.8°C 90% Calm Calm -- 30.10 in1019.3 mb 0.00 in0.0 mm 0.00 in0.0 mm 0.73 in18.5 mm
04:50 PM 16.7°F-8.5°C 14.4°F-9.8°C 90% Calm Calm -- 30.10 in1019.3 mb 0.00 in0.0 mm 0.00 in0.0 mm 0.73 in18.5 mm
04:55 PM 16.7°F-8.5°C 14.4°F-9.8°C 90% Calm Calm -- 30.11 in1019.6 mb 0.00 in0.0 mm 0.00 in0.0 mm 0.73 in18.5 mm
05:00 PM 16.5°F-8.6°C 14.2°F-9.9°C 90% Calm Calm -- 30.11 in1019.6 mb 0.00 in0.0 mm 0.00 in0.0 mm 0.73 in18.5 mm
05:05 PM 16.3°F-8.7°C 14.0°F-10.0°C 90% Calm Calm -- 30.12 in1020.0 mb 0.00 in0.0 mm 0.00 in0.0 mm 0.73 in18.5 mm
05:10 PM 16.0°F-8.9°C 13.3°F-10.4°C 89% Calm Calm -- 30.12 in1020.0 mb 0.00 in0.0 mm 0.00 in0.0 mm 0.73 in18.5 mm
05:15 PM 15.8°F-9.0°C 13.1°F-10.5°C 89% Calm Calm -- 30.13 in1020.3 mb 0.00 in0.0 mm 0.00 in0.0 mm 0.73 in18.5 mm
05:20 PM 15.7°F-9.1°C 12.9°F-10.6°C 89% Calm Calm -- 30.14 in1020.7 mb 0.00 in0.0 mm 0.00 in0.0 mm 0.73 in18.5 mm
05:25 PM 15.5°F-9.2°C 12.6°F-10.8°C 88% Calm Calm -- 30.13 in1020.3 mb 0.00 in0.0 mm 0.00 in0.0 mm 0.73 in18.5 mm
05:30 PM 15.4°F-9.2°C 12.2°F-11.0°C 87% Calm Calm -- 30.14 in1020.7 mb 0.00 in0.0 mm 0.00 in0.0 mm 0.73 in18.5 mm
05:35 PM 15.4°F-9.2°C 12.2°F-11.0°C 87% Calm Calm -- 30.14 in1020.7 mb 0.00 in0.0 mm 0.00 in0.0 mm 0.73 in18.5 mm
05:40 PM 15.3°F-9.3°C 12.0°F-11.1°C 87% Calm Calm -- 30.14 in1020.7 mb 0.00 in0.0 mm 0.00 in0.0 mm 0.73 in18.5 mm
05:45 PM 15.3°F-9.3°C 12.0°F-11.1°C 87% Calm Calm -- 30.15 in1021.0 mb 0.00 in0.0 mm 0.00 in0.0 mm 0.73 in18.5 mm
05:50 PM 15.3°F-9.3°C 12.0°F-11.1°C 87% Calm Calm -- 30.15 in1021.0 mb 0.00 in0.0 mm 0.00 in0.0 mm 0.73 in18.5 mm
05:55 PM 15.2°F-9.3°C 12.0°F-11.1°C 87% Calm Calm -- 30.15 in1021.0 mb 0.00 in0.0 mm 0.00 in0.0 mm 0.73 in18.5 mm
06:00 PM 15.1°F-9.4°C 11.8°F-11.2°C 87% Calm Calm -- 30.16 in1021.3 mb 0.00 in0.0 mm 0.00 in0.0 mm 0.73 in18.5 mm
06:05 PM 14.9°F-9.5°C 11.5°F-11.4°C 86% Calm Calm -- 30.17 in1021.7 mb 0.00 in0.0 mm 0.00 in0.0 mm 0.73 in18.5 mm
06:10 PM 14.8°F-9.6°C 11.1°F-11.6°C 85% Calm Calm -- 30.17 in1021.7 mb 0.00 in0.0 mm 0.00 in0.0 mm 0.73 in18.5 mm
06:15 PM 14.7°F-9.6°C 11.1°F-11.6°C 85% Calm Calm -- 30.18 in1022.0 mb 0.00 in0.0 mm 0.00 in0.0 mm 0.73 in18.5 mm
06:20 PM 14.6°F-9.7°C 10.6°F-11.9°C 84% Calm Calm -- 30.18 in1022.0 mb 0.00 in0.0 mm 0.00 in0.0 mm 0.73 in18.5 mm
06:25 PM 14.6°F-9.7°C 10.6°F-11.9°C 84% Calm Calm -- 30.18 in1022.0 mb 0.00 in0.0 mm 0.00 in0.0 mm 0.73 in18.5 mm
06:30 PM 14.5°F-9.7°C 10.6°F-11.9°C 84% Calm Calm -- 30.19 in1022.4 mb 0.00 in0.0 mm 0.00 in0.0 mm 0.73 in18.5 mm
06:35 PM 14.5°F-9.7°C 10.9°F-11.7°C 85% Calm Calm -- 30.19 in1022.4 mb 0.00 in0.0 mm 0.00 in0.0 mm 0.73 in18.5 mm
06:40 PM 14.4°F-9.8°C 10.4°F-12.0°C 84% Calm Calm -- 30.19 in1022.4 mb 0.00 in0.0 mm 0.00 in0.0 mm 0.73 in18.5 mm
06:45 PM 14.2°F-9.9°C 10.2°F-12.1°C 84% Calm Calm -- 30.20 in1022.7 mb 0.00 in0.0 mm 0.00 in0.0 mm 0.73 in18.5 mm
06:50 PM 14.0°F-10.0°C 9.9°F-12.3°C 83% Calm Calm -- 30.20 in1022.7 mb 0.00 in0.0 mm 0.00 in0.0 mm 0.73 in18.5 mm
06:55 PM 14.0°F-10.0°C 9.9°F-12.3°C 83% Calm Calm -- 30.20 in1022.7 mb 0.00 in0.0 mm 0.00 in0.0 mm 0.73 in18.5 mm
07:00 PM 14.0°F-10.0°C 9.9°F-12.3°C 83% Calm Calm -- 30.20 in1022.7 mb 0.00 in0.0 mm 0.00 in0.0 mm 0.73 in18.5 mm
07:05 PM 14.0°F-10.0°C 9.9°F-12.3°C 83% Calm Calm -- 30.21 in1023.0 mb 0.00 in0.0 mm 0.00 in0.0 mm 0.73 in18.5 mm
07:10 PM 13.9°F-10.1°C 9.3°F-12.6°C 82% Calm Calm -- 30.21 in1023.0 mb 0.00 in0.0 mm 0.00 in0.0 mm 0.73 in18.5 mm
07:15 PM 13.9°F-10.1°C 9.3°F-12.6°C 82% Calm Calm -- 30.22 in1023.4 mb 0.00 in0.0 mm 0.00 in0.0 mm 0.73 in18.5 mm
07:20 PM 13.9°F-10.1°C 9.7°F-12.4°C 83% Calm Calm -- 30.22 in1023.4 mb 0.00 in0.0 mm 0.00 in0.0 mm 0.73 in18.5 mm
07:25 PM 13.9°F-10.1°C 9.7°F-12.4°C 83% Calm Calm -- 30.22 in1023.4 mb 0.00 in0.0 mm 0.00 in0.0 mm 0.73 in18.5 mm
07:30 PM 13.9°F-10.1°C 9.3°F-12.6°C 82% Calm Calm -- 30.23 in1023.7 mb 0.00 in0.0 mm 0.00 in0.0 mm 0.73 in18.5 mm
07:35 PM 13.9°F-10.1°C 9.3°F-12.6°C 82% Calm Calm -- 30.23 in1023.7 mb 0.00 in0.0 mm 0.00 in0.0 mm 0.73 in18.5 mm